Time;durP1;ratioP1;P1;durP2;ratioP2;P2;SDS_P1;SDS_P2;PMS_P1;PMS_P2;Temp;Humidity;BMP_temperature;BMP_pressure;BME280_temperature;BME280_humidity;BME280_pressure;Samples;Min_cycle;Max_cycle;Signal;HPM_P1;HPM_P2
2023/02/25 00:01:50;;;;;;;23.10;13.80;;;;;;;3.08;100.00;98183.42;108573;1270;22172;-65
2023/02/25 00:04:31;;;;;;;24.70;14.60;;;;;;;3.03;100.00;98180.11;110266;1268;22371;-65
2023/02/25 00:07:21;;;;;;;21.50;13.40;;;;;;;2.98;100.00;98174.86;110387;1273;22335;-66
2023/02/25 00:09:53;;;;;;;21.60;13.10;;;;;;;2.99;100.00;98173.53;110385;1275;22407;-65
2023/02/25 00:12:22;;;;;;;17.60;12.50;;;;;;;3.02;100.00;98172.73;110293;1268;22361;-65
2023/02/25 00:14:51;;;;;;;24.60;13.20;;;;;;;3.04;100.00;98172.05;110376;1273;22294;-65
2023/02/25 00:17:19;;;;;;;24.40;14.70;;;;;;;3.05;100.00;98171.69;110396;1274;23960;-65
2023/02/25 00:19:47;;;;;;;21.30;13.60;;;;;;;3.09;100.00;98174.98;110414;1274;22361;-65
2023/02/25 00:22:20;;;;;;;23.50;15.00;;;;;;;3.11;100.00;98175.05;110463;1274;22387;-65
2023/02/25 00:24:52;;;;;;;18.90;13.00;;;;;;;3.07;100.00;98171.65;110403;1273;23255;-65
2023/02/25 00:27:21;;;;;;;22.70;13.90;;;;;;;3.09;100.00;98167.98;110451;1267;22366;-65
2023/02/25 00:29:52;;;;;;;25.10;13.80;;;;;;;3.10;100.00;98162.08;110437;1267;22511;-65
2023/02/25 00:32:21;;;;;;;20.20;12.90;;;;;;;3.11;100.00;98161.66;110319;1275;22247;-65
2023/02/25 00:34:50;;;;;;;21.70;13.10;;;;;;;3.13;100.00;98159.14;110389;1274;22510;-65
2023/02/25 00:37:19;;;;;;;20.50;13.80;;;;;;;3.15;100.00;98157.11;110449;1268;22427;-66
2023/02/25 00:39:48;;;;;;;21.10;13.90;;;;;;;3.14;100.00;98153.02;108050;1274;25501;-65
2023/02/25 00:42:17;;;;;;;27.80;14.20;;;;;;;3.11;100.00;98149.40;107774;1274;26901;-65
2023/02/25 00:44:47;;;;;;;21.40;13.80;;;;;;;3.14;100.00;98147.90;106976;1274;22551;-65
2023/02/25 00:47:17;;;;;;;23.20;13.20;;;;;;;3.19;100.00;98144.38;110389;1274;22210;-66
2023/02/25 00:49:46;;;;;;;21.50;12.70;;;;;;;3.20;100.00;98135.66;110374;1274;22321;-66
2023/02/25 00:52:15;;;;;;;23.00;13.10;;;;;;;3.23;100.00;98140.04;110419;1274;22977;-66
2023/02/25 00:54:48;;;;;;;23.80;12.70;;;;;;;3.27;100.00;98139.58;110273;1273;22412;-66
2023/02/25 00:57:42;;;;;;;20.50;13.90;;;;;;;3.23;100.00;98137.90;110342;1275;22340;-66
2023/02/25 01:04:03;;;;;;;22.70;13.70;;;;;;;3.22;100.00;98135.52;110367;1267;22360;-66
2023/02/25 01:06:58;;;;;;;26.30;14.20;;;;;;;3.24;100.00;98133.31;110187;1275;22364;-66
2023/02/25 01:09:26;;;;;;;22.40;13.20;;;;;;;3.22;100.00;98131.70;110217;1274;23347;-65
2023/02/25 01:11:57;;;;;;;21.70;14.30;;;;;;;3.17;100.00;98121.56;110377;1272;22976;-66
2023/02/25 01:14:48;;;;;;;24.10;13.30;;;;;;;3.11;100.00;98118.27;110348;1271;22340;-66
2023/02/25 01:17:34;;;;;;;25.20;13.90;;;;;;;3.11;100.00;98116.60;109726;1275;22663;-66
2023/02/25 01:20:30;;;;;;;21.40;12.90;;;;;;;3.10;100.00;98117.13;107614;1274;23331;-66
2023/02/25 01:23:09;;;;;;;22.10;14.00;;;;;;;3.10;100.00;98113.15;107626;1268;23372;-65
2023/02/25 01:26:20;;;;;;;;;;;;;;;;;;;;;
2023/02/25 01:29:17;;;;;;;21.20;13.80;;;;;;;3.04;100.00;98107.31;107535;1274;23635;-65
2023/02/25 01:31:52;;;;;;;22.30;13.80;;;;;;;3.00;100.00;98101.98;107525;1268;22600;-65
2023/02/25 01:34:23;;;;;;;22.50;14.00;;;;;;;3.01;100.00;98099.02;107705;1268;26520;-65
2023/02/25 01:36:52;;;;;;;24.50;13.80;;;;;;;3.01;100.00;98089.71;107500;1275;23219;-65
2023/02/25 01:39:21;;;;;;;27.00;13.90;;;;;;;3.01;100.00;98089.35;107663;1274;22543;-65
2023/02/25 01:41:52;;;;;;;22.10;13.50;;;;;;;3.00;100.00;98091.66;107755;1269;25301;-65
2023/02/25 01:44:20;;;;;;;22.20;14.70;;;;;;;2.95;100.00;98083.68;107852;1267;25489;-65
2023/02/25 01:46:52;;;;;;;27.00;14.90;;;;;;;2.88;100.00;98082.45;107972;1269;24286;-65
2023/02/25 01:49:27;;;;;;;26.00;15.10;;;;;;;2.89;100.00;98082.04;107626;1269;25234;-65
2023/02/25 01:52:06;;;;;;;22.50;13.80;;;;;;;2.89;100.00;98072.74;107711;1272;24261;-65
2023/02/25 01:54:36;;;;;;;22.30;13.90;;;;;;;2.86;100.00;98079.28;107549;1269;26510;-65
2023/02/25 01:57:08;;;;;;;22.90;13.90;;;;;;;2.82;100.00;98081.20;107430;1269;22621;-65
2023/02/25 01:59:38;;;;;;;22.40;13.30;;;;;;;2.75;100.00;98075.36;107478;1269;25472;-65
2023/02/25 02:02:10;;;;;;;25.30;15.00;;;;;;;2.68;100.00;98065.76;107567;1269;23431;-66
2023/02/25 02:04:39;;;;;;;21.90;14.30;;;;;;;2.64;100.00;98057.04;110292;1273;22323;-66
2023/02/25 02:07:10;;;;;;;22.60;14.00;;;;;;;2.62;100.00;98053.00;110354;1274;22212;-66
2023/02/25 02:09:56;;;;;;;22.20;14.40;;;;;;;2.61;100.00;98056.21;110405;1274;22392;-67
2023/02/25 02:12:26;;;;;;;20.50;14.00;;;;;;;2.59;100.00;98055.39;110240;1269;22990;-66
2023/02/25 02:14:54;;;;;;;25.10;14.90;;;;;;;2.57;100.00;98050.39;110402;1271;22281;-66
2023/02/25 02:17:27;;;;;;;23.00;15.30;;;;;;;2.51;100.00;98053.09;110286;1268;22341;-66
2023/02/25 02:20:11;;;;;;;24.20;14.80;;;;;;;2.43;100.00;98060.80;110393;1269;22225;-66
2023/02/25 02:23:02;;;;;;;26.60;15.30;;;;;;;2.44;100.00;98052.79;110399;1274;22428;-67
2023/02/25 02:26:02;;;;;;;23.40;14.10;;;;;;;2.46;100.00;98050.66;108409;1267;22537;-66
2023/02/25 02:28:32;;;;;;;25.40;14.30;;;;;;;2.45;100.00;98037.64;107527;1269;23444;-66
2023/02/25 02:31:27;;;;;;;24.00;14.50;;;;;;;2.42;100.00;98030.27;110326;1273;23136;-65
2023/02/25 02:34:17;;;;;;;23.10;15.50;;;;;;;2.36;100.00;98027.34;110185;1272;22382;-65
2023/02/25 02:37:06;;;;;;;24.10;14.70;;;;;;;2.33;100.00;98026.36;110395;1274;23084;-65
2023/02/25 02:40:14;;;;;;;27.40;15.50;;;;;;;2.34;100.00;98025.98;110116;1269;22395;-64
2023/02/25 02:43:01;;;;;;;22.30;15.50;;;;;;;2.34;100.00;98020.98;110255;1275;22935;-65
2023/02/25 02:45:39;;;;;;;28.30;16.90;;;;;;;2.33;100.00;98021.63;110176;1270;22390;-65
2023/02/25 02:48:34;;;;;;;22.90;16.20;;;;;;;2.29;100.00;98019.25;110323;1270;22519;-65
2023/02/25 02:51:06;;;;;;;28.20;17.90;;;;;;;2.22;100.00;98019.16;110381;1269;22273;-65
2023/02/25 02:53:48;;;;;;;28.50;16.60;;;;;;;2.21;100.00;98019.09;110233;1269;22396;-65
2023/02/25 02:56:17;;;;;;;24.40;14.60;;;;;;;2.21;100.00;98015.65;110369;1275;22756;-64
2023/02/25 02:58:47;;;;;;;25.20;16.00;;;;;;;2.18;100.00;98014.55;110150;1274;22402;-65
2023/02/25 03:01:30;;;;;;;27.70;15.40;;;;;;;2.16;100.00;98010.84;110066;1272;22180;-64
2023/02/25 03:04:03;;;;;;;25.60;16.60;;;;;;;2.15;100.00;98006.97;110351;1269;22472;-64
2023/02/25 03:06:47;;;;;;;25.90;17.00;;;;;;;2.10;100.00;98009.41;110053;1271;22348;-65
2023/02/25 03:09:37;;;;;;;24.20;16.00;;;;;;;2.03;100.00;98012.63;110345;1275;23053;-65
2023/02/25 03:12:09;;;;;;;29.10;15.90;;;;;;;2.03;100.00;98008.39;110062;1274;23171;-65
2023/02/25 03:14:38;;;;;;;24.10;16.80;;;;;;;2.05;100.00;98001.77;110285;1273;22318;-65
2023/02/25 03:17:09;;;;;;;26.50;15.50;;;;;;;2.03;100.00;97999.13;107883;1273;25425;-65
2023/02/25 03:19:40;;;;;;;28.70;16.00;;;;;;;2.03;100.00;98000.94;110188;1274;22418;-66
2023/02/25 03:22:13;;;;;;;25.60;16.10;;;;;;;2.03;100.00;98001.14;110331;1272;22231;-66
2023/02/25 03:25:10;;;;;;;26.50;18.20;;;;;;;1.98;100.00;97996.77;110215;1274;22414;-65
2023/02/25 03:27:47;;;;;;;24.60;16.80;;;;;;;1.92;100.00;97990.50;110088;1272;22452;-66
2023/02/25 03:30:30;;;;;;;31.20;17.60;;;;;;;1.92;100.00;97995.01;110290;1274;22334;-65
2023/02/25 03:33:08;;;;;;;26.00;16.50;;;;;;;1.92;100.00;97990.98;110136;1272;22948;-65
2023/02/25 03:35:41;;;;;;;28.90;16.70;;;;;;;1.92;100.00;97984.05;110286;1274;22391;-66
2023/02/25 03:38:11;;;;;;;28.10;17.00;;;;;;;1.92;100.00;97981.06;109868;1274;277994;-65
2023/02/25 03:42:28;;;;;;;28.70;18.90;;;;;;;1.96;100.00;97980.13;103586;1304;545241;-64
2023/02/25 03:44:58;;;;;;;26.60;18.50;;;;;;;1.89;100.00;97985.66;105712;1277;22546;-64
2023/02/25 03:47:28;;;;;;;28.40;17.90;;;;;;;1.91;100.00;97983.48;105703;1284;23300;-64
2023/02/25 03:50:16;;;;;;;28.60;17.70;;;;;;;1.93;100.00;97980.69;109342;1283;23270;-65
2023/02/25 03:53:05;;;;;;;29.20;18.40;;;;;;;1.93;100.00;97975.48;105684;1282;22553;-65
2023/02/25 03:56:08;;;;;;;25.40;18.70;;;;;;;1.93;100.00;97972.48;105523;1279;286939;-65
2023/02/25 03:58:39;;;;;;;30.10;18.60;;;;;;;1.90;100.00;97971.23;106134;1283;22709;-64
2023/02/25 04:01:14;;;;;;;29.40;19.60;;;;;;;1.86;100.00;97970.40;106238;1280;26160;-64
2023/02/25 04:03:44;;;;;;;30.10;19.90;;;;;;;1.86;100.00;97965.35;106045;1287;27754;-64
2023/02/25 04:06:20;;;;;;;32.90;19.70;;;;;;;1.88;100.00;97956.61;105829;1280;26522;-65
2023/02/25 04:08:51;;;;;;;30.00;19.40;;;;;;;1.90;100.00;97943.64;106077;1268;22566;-64
2023/02/25 04:11:19;;;;;;;28.40;20.00;;;;;;;1.91;100.00;97945.63;105963;1281;25425;-65
2023/02/25 04:13:48;;;;;;;31.60;20.60;;;;;;;1.92;100.00;97950.36;105962;1281;22532;-65
2023/02/25 04:16:20;;;;;;;32.10;20.20;;;;;;;1.95;100.00;97958.53;105992;1282;24406;-65
2023/02/25 04:18:58;;;;;;;31.40;21.80;;;;;;;1.98;100.00;97949.70;106720;1287;22594;-65
2023/02/25 04:21:31;;;;;;;30.10;21.90;;;;;;;2.01;100.00;97937.41;106784;1279;22600;-65
2023/02/25 04:24:00;;;;;;;31.50;20.50;;;;;;;2.04;100.00;97931.39;107640;1287;23196;-65
2023/02/25 04:26:35;;;;;;;32.70;23.40;;;;;;;2.08;100.00;97933.22;106871;1281;24815;-65
2023/02/25 04:29:07;;;;;;;35.80;22.70;;;;;;;2.10;100.00;97930.66;106835;1279;24933;-65
2023/02/25 04:31:41;;;;;;;35.50;23.10;;;;;;;2.09;100.00;97929.47;106796;1282;22543;-65
2023/02/25 04:34:12;;;;;;;38.20;23.00;;;;;;;2.12;100.00;97926.96;106648;1286;23034;-65
2023/02/25 04:36:45;;;;;;;28.70;22.50;;;;;;;2.14;100.00;97904.70;106652;1287;25353;-65
2023/02/25 04:39:16;;;;;;;32.40;22.30;;;;;;;2.16;100.00;97904.05;106567;1287;25488;-65
2023/02/25 04:41:48;;;;;;;33.90;22.90;;;;;;;2.19;100.00;97906.96;106796;1281;22937;-65
2023/02/25 04:44:16;;;;;;;32.10;22.60;;;;;;;2.21;100.00;97905.42;106966;1281;26615;-65
2023/02/25 04:46:50;;;;;;;35.10;23.20;;;;;;;2.25;100.00;97916.45;107069;1276;22680;-65
2023/02/25 04:49:21;;;;;;;31.90;21.50;;;;;;;2.28;100.00;97909.25;109714;1281;23192;-66
2023/02/25 04:51:50;;;;;;;36.50;23.30;;;;;;;2.33;100.00;97913.09;109780;1282;22408;-65
2023/02/25 04:54:19;;;;;;;34.70;23.10;;;;;;;2.37;100.00;97918.32;109804;1282;23112;-66
2023/02/25 04:56:47;;;;;;;37.10;22.80;;;;;;;2.40;100.00;97919.62;109025;1281;22567;-66
2023/02/25 04:59:17;;;;;;;36.10;24.50;;;;;;;2.38;100.00;97916.98;107417;1282;25444;-65
2023/02/25 05:01:48;;;;;;;37.90;23.80;;;;;;;2.41;100.00;97916.77;106970;1276;25259;-65
2023/02/25 05:04:16;;;;;;;36.50;24.20;;;;;;;2.44;100.00;97917.86;107418;1282;25479;-65
2023/02/25 05:06:47;;;;;;;33.20;23.20;;;;;;;2.46;100.00;97918.89;107180;1282;25558;-65
2023/02/25 05:09:16;;;;;;;35.90;24.00;;;;;;;2.47;100.00;97924.59;107254;1277;22589;-66
2023/02/25 05:11:53;;;;;;;35.50;24.20;;;;;;;2.49;100.00;97924.16;107299;1275;25383;-67
2023/02/25 05:15:33;;;;;;;36.00;23.00;;;;;;;2.50;100.00;97928.91;107061;1282;24411;-67
2023/02/25 05:17:54;;;;;;;39.10;25.40;;;;;;;2.52;100.00;97928.36;106995;1282;22549;-67
2023/02/25 05:20:41;;;;;;;36.30;24.10;;;;;;;2.53;100.00;97932.02;106969;1282;22761;-67
2023/02/25 05:23:36;;;;;;;37.20;25.00;;;;;;;2.53;100.00;97936.11;109560;1283;23154;-67
2023/02/25 05:26:32;;;;;;;39.40;24.90;;;;;;;2.56;100.00;97948.19;109772;1283;22970;-67
2023/02/25 05:29:34;;;;;;;34.00;24.40;;;;;;;2.54;100.00;97936.96;109766;1282;22318;-67
2023/02/25 05:32:59;;;;;;;36.90;25.40;;;;;;;2.60;100.00;97930.38;109733;1275;22408;-67
2023/02/25 05:36:21;;;;;;;36.90;26.20;;;;;;;2.61;100.00;97924.86;109779;1283;22359;-67
2023/02/25 05:39:01;;;;;;;34.70;24.40;;;;;;;2.64;100.00;97917.55;109775;1277;22243;-67
2023/02/25 05:42:00;;;;;;;;;;;;;;;;;;;;;
2023/02/25 05:44:56;;;;;;;37.20;23.90;;;;;;;2.69;100.00;97908.65;109646;1283;22453;-67
2023/02/25 05:47:56;;;;;;;;;;;;;;;;;;;;;
2023/02/25 05:51:01;;;;;;;;;;;;;;;;;;;;;
2023/02/25 05:58:30;;;;;;;37.60;25.10;;;;;;;2.76;100.00;97895.13;109724;1282;23146;-67
2023/02/25 06:01:41;;;;;;;35.30;24.10;;;;;;;2.76;100.00;97889.81;109744;1280;23086;-67
2023/02/25 06:04:39;;;;;;;37.70;23.90;;;;;;;2.77;100.00;97887.96;109548;1277;22354;-67
2023/02/25 06:11:16;;;;;;;;;;;;;;;;;;;;;
2023/02/25 06:14:03;;;;;;;37.00;24.90;;;;;;;2.88;100.00;97875.52;109826;1282;22292;-67
2023/02/25 06:16:42;;;;;;;35.50;23.50;;;;;;;2.93;100.00;97866.42;109683;1281;23163;-67
2023/02/25 06:19:25;;;;;;;38.50;24.80;;;;;;;2.97;100.00;97866.45;109872;1282;22925;-68
2023/02/25 06:22:00;;;;;;;40.60;26.10;;;;;;;3.00;100.00;97859.46;109868;1282;22445;-67
2023/02/25 06:25:19;;;;;;;36.40;24.90;;;;;;;3.04;100.00;97862.96;109850;1282;22232;-68
2023/02/25 06:27:59;;;;;;;34.50;25.20;;;;;;;3.05;100.00;97864.41;109165;1282;22732;-67
2023/02/25 06:31:08;;;;;;;;;;;;;;;;;;;;;
2023/02/25 06:34:18;;;;;;;37.10;24.80;;;;;;;3.15;100.00;97868.33;107277;1277;22673;-67
2023/02/25 06:37:35;;;;;;;36.90;25.20;;;;;;;3.20;100.00;97865.48;106974;1282;23330;-67
2023/02/25 06:40:11;;;;;;;37.50;24.00;;;;;;;3.25;100.00;97866.23;106689;1280;25362;-67
2023/02/25 06:43:06;;;;;;;39.40;26.70;;;;;;;3.29;100.00;97854.98;107019;1277;25415;-67
2023/02/25 06:46:05;;;;;;;35.40;26.20;;;;;;;3.26;100.00;97846.80;107045;1282;25394;-67
2023/02/25 06:49:43;;;;;;;;;;;;;;;;;;;;;
2023/02/25 06:52:30;;;;;;;38.90;26.30;;;;;;;3.29;100.00;97837.52;107022;1280;26183;-67
2023/02/25 06:55:42;;;;;;;41.50;25.40;;;;;;;3.30;100.00;97829.13;107017;1280;24134;-67
2023/02/25 06:58:11;;;;;;;34.80;23.70;;;;;;;3.32;100.00;97827.02;106977;1282;22650;-67
2023/02/25 07:00:47;;;;;;;37.30;25.00;;;;;;;3.35;100.00;97818.46;106987;1279;23216;-67
2023/02/25 07:07:20;;;;;;;35.70;24.30;;;;;;;3.40;100.00;97815.00;107047;1282;22689;-66
2023/02/25 07:10:10;;;;;;;35.40;25.00;;;;;;;3.48;100.00;97809.39;106996;1282;23764;-68
2023/02/25 07:13:16;;;;;;;34.30;24.00;;;;;;;3.57;100.00;97806.79;106977;1275;25094;-67
2023/02/25 07:16:10;;;;;;;35.90;24.70;;;;;;;3.63;100.00;97805.98;107048;1279;25513;-67
2023/02/25 07:19:00;;;;;;;41.30;26.10;;;;;;;3.66;100.00;97806.39;106948;1282;25459;-67
2023/02/25 07:21:32;;;;;;;39.00;26.00;;;;;;;3.69;100.00;97805.46;106923;1280;24537;-68
2023/02/25 07:24:20;;;;;;;40.60;27.90;;;;;;;3.69;100.00;97798.84;107090;1275;23208;-67
2023/02/25 07:27:03;;;;;;;39.80;26.50;;;;;;;3.72;100.00;97802.34;109748;1281;22548;-65
2023/02/25 07:29:59;;;;;;;;;;;;;;;;;;;;;
2023/02/25 07:33:24;;;;;;;;;;;;;;;;;;;;;
2023/02/25 07:36:32;;;;;;;40.30;27.60;;;;;;;3.98;100.00;97796.73;106807;1283;25367;-66
2023/02/25 07:39:22;;;;;;;;;;;;;;;4.03;100.00;97787.35;106497;1284;23549;-66
2023/02/25 07:41:56;;;;;;;41.00;28.40;;;;;;;3.99;100.00;97783.33;107023;1279;25503;-66
2023/02/25 07:45:03;;;;;;;40.70;28.10;;;;;;;3.99;100.00;97782.42;107032;1276;26763;-65
2023/02/25 07:48:17;;;;;;;40.40;28.50;;;;;;;4.01;100.00;97779.77;107001;1276;21775;-67
2023/02/25 07:51:27;;;;;;;44.10;30.70;;;;;;;4.01;100.00;97771.15;107963;1276;24224;-67
2023/02/25 07:54:07;;;;;;;46.60;30.70;;;;;;;4.09;100.00;97765.84;107064;1281;22544;-67
2023/02/25 07:56:50;;;;;;;46.20;30.40;;;;;;;4.22;100.00;97762.80;106986;1277;22628;-67
2023/02/25 07:59:34;;;;;;;45.30;30.40;;;;;;;4.32;100.00;97762.41;107091;1282;23394;-67
2023/02/25 08:02:20;;;;;;;45.00;31.50;;;;;;;4.41;100.00;97759.88;107019;1275;22552;-66
2023/02/25 08:04:59;;;;;;;48.40;32.80;;;;;;;4.43;100.00;97759.77;107151;1276;23626;-63
2023/02/25 08:07:57;;;;;;;44.40;31.00;;;;;;;4.49;100.00;97759.50;106267;1274;22540;-63
2023/02/25 08:10:52;;;;;;;46.90;31.40;;;;;;;4.60;100.00;97757.92;109932;1272;22237;-64
2023/02/25 08:13:23;;;;;;;46.70;32.40;;;;;;;4.68;100.00;97749.83;109886;1280;22356;-67
2023/02/25 08:16:12;;;;;;;48.20;33.00;;;;;;;4.72;100.00;97757.18;109978;1278;22423;-66
2023/02/25 08:18:51;;;;;;;45.90;32.30;;;;;;;4.78;100.00;97747.11;109885;1279;22261;-67
2023/02/25 08:21:29;;;;;;;53.30;34.50;;;;;;;4.80;100.00;97741.75;109899;1279;23078;-67
2023/02/25 08:24:00;;;;;;;46.40;32.20;;;;;;;4.82;100.00;97735.20;109982;1273;22342;-67
2023/02/25 08:26:40;;;;;;;47.60;31.60;;;;;;;4.93;100.00;97733.59;109924;1278;22228;-68
2023/02/25 08:29:23;;;;;;;47.40;31.40;;;;;;;5.08;100.00;97733.79;109905;1275;22502;-67
2023/02/25 08:32:15;;;;;;;43.10;30.50;;;;;;;5.14;100.00;97723.69;109962;1279;22440;-67
2023/02/25 08:34:51;;;;;;;47.60;31.30;;;;;;;5.19;100.00;97723.98;109869;1278;22331;-67
2023/02/25 08:37:38;;;;;;;42.50;28.60;;;;;;;5.27;100.00;97721.73;110030;1279;23157;-67
2023/02/25 08:40:16;;;;;;;40.00;28.60;;;;;;;5.37;100.00;97714.11;110231;1275;23142;-68
2023/02/25 08:43:12;;;;;;;38.20;29.60;;;;;;;5.43;100.00;97719.86;110213;1268;23240;-68
2023/02/25 08:46:32;;;;;;;44.40;30.20;;;;;;;5.45;100.00;97708.84;110315;1275;22627;-68
2023/02/25 08:49:09;;;;;;;39.60;28.50;;;;;;;5.62;100.00;97701.95;110205;1275;22340;-67
2023/02/25 08:52:08;;;;;;;44.30;29.70;;;;;;;5.79;100.00;97692.71;110268;1270;22500;-68
2023/02/25 08:54:40;;;;;;;42.20;29.30;;;;;;;5.99;100.00;97688.53;110190;1271;23072;-66
2023/02/25 08:57:09;;;;;;;43.40;30.30;;;;;;;6.12;100.00;97684.78;110300;1269;22402;-68
2023/02/25 08:59:38;;;;;;;38.60;27.60;;;;;;;6.31;100.00;97680.27;110222;1273;22295;-67
2023/02/25 09:02:13;;;;;;;38.10;29.40;;;;;;;6.50;100.00;97680.73;110207;1271;22453;-67
2023/02/25 09:04:48;;;;;;;44.20;30.20;;;;;;;6.62;100.00;97677.73;110153;1272;22261;-67
2023/02/25 09:07:16;;;;;;;40.60;30.30;;;;;;;6.71;100.00;97670.70;110203;1271;23035;-67
2023/02/25 09:09:46;;;;;;;37.20;27.80;;;;;;;6.81;100.00;97666.52;110300;1275;22391;-67
2023/02/25 09:12:51;;;;;;;37.50;28.80;;;;;;;6.91;100.00;97656.73;110274;1275;22344;-67
2023/02/25 09:15:20;;;;;;;40.30;28.70;;;;;;;6.86;100.00;97655.36;109790;1275;22640;-67
2023/02/25 09:18:00;;;;;;;43.50;29.80;;;;;;;6.90;100.00;97650.45;107818;1270;23821;-66
2023/02/25 09:21:03;;;;;;;36.50;26.90;;;;;;;7.00;100.00;97645.91;107623;1275;22561;-68
2023/02/25 09:23:42;;;;;;;38.90;30.20;;;;;;;7.08;100.00;97634.90;107456;1275;22533;-67
2023/02/25 09:26:21;;;;;;;42.80;31.00;;;;;;;7.06;100.00;97627.33;107652;1269;22560;-67
2023/02/25 09:28:59;;;;;;;45.20;32.10;;;;;;;7.04;100.00;97617.25;110247;1272;23141;-67
2023/02/25 09:31:35;;;;;;;34.20;27.50;;;;;;;7.11;100.00;97608.30;110194;1275;22433;-67
2023/02/25 09:34:34;;;;;;;36.80;28.80;;;;;;;7.26;100.00;97597.33;110234;1275;22350;-67
2023/02/25 09:37:13;;;;;;;41.10;31.10;;;;;;;7.29;100.00;97591.15;110146;1275;22551;-67
2023/02/25 09:39:53;;;;;;;;;;;;;;;7.30;100.00;97588.61;110213;1272;22490;-67
2023/02/25 09:43:05;;;;;;;;;;;;;;;;;;;;;
2023/02/25 09:45:52;;;;;;;37.00;27.50;;;;;;;7.47;100.00;97583.95;110320;1275;23113;-67
2023/02/25 09:49:11;;;;;;;40.30;26.40;;;;;;;7.60;100.00;97581.63;110229;1275;22319;-67
2023/02/25 09:52:12;;;;;;;31.50;25.40;;;;;;;7.82;100.00;97565.52;109887;1270;22355;-66
2023/02/25 09:55:16;;;;;;;35.00;26.50;;;;;;;7.89;100.00;97562.11;110170;1275;22263;-67
2023/02/25 09:58:03;;;;;;;33.70;25.70;;;;;;;7.89;100.00;97552.95;110140;1274;22411;-67
2023/02/25 10:01:37;;;;;;;29.30;24.10;;;;;;;8.01;100.00;97548.54;107725;1275;22589;-66
2023/02/25 10:04:32;;;;;;;30.40;23.90;;;;;;;8.32;100.00;97545.04;107368;1275;22620;-67
2023/02/25 10:07:13;;;;;;;31.10;24.20;;;;;;;8.36;100.00;97543.55;107729;1273;22637;-66
2023/02/25 10:09:51;;;;;;;28.90;22.80;;;;;;;8.31;100.00;97539.13;107733;1270;24119;-66
2023/02/25 10:12:23;;;;;;;29.80;21.80;;;;;;;8.31;100.00;97530.30;107925;1273;23877;-66
2023/02/25 10:15:11;;;;;;;28.00;22.20;;;;;;;8.36;100.00;97523.16;107565;1269;22772;-66
2023/02/25 10:17:51;;;;;;;28.70;22.30;;;;;;;8.38;100.00;97517.08;107558;1272;22565;-66
2023/02/25 10:20:51;;;;;;;26.80;21.30;;;;;;;8.38;100.00;97506.10;107763;1272;25217;-66
2023/02/25 10:23:42;;;;;;;27.80;21.00;;;;;;;8.50;100.00;97498.58;108515;1275;25256;-66
2023/02/25 10:26:18;;;;;;;27.00;19.60;;;;;;;8.72;100.00;97484.75;107673;1270;23768;-66
2023/02/25 10:29:07;;;;;;;27.70;21.10;;;;;;;8.83;100.00;97471.86;107777;1269;23904;-66
2023/02/25 10:31:37;;;;;;;26.40;20.30;;;;;;;8.90;100.00;97466.02;107707;1274;23584;-65
2023/02/25 10:34:27;;;;;;;27.30;20.50;;;;;;;8.90;100.00;97458.67;110200;1269;23118;-66
2023/02/25 10:36:57;;;;;;;25.40;20.90;;;;;;;8.80;100.00;97444.66;110270;1275;23023;-67
2023/02/25 10:39:26;;;;;;;24.80;20.30;;;;;;;8.68;100.00;97434.73;110209;1275;23084;-67
2023/02/25 10:41:56;;;;;;;30.90;22.40;;;;;;;8.64;100.00;97427.66;110140;1275;22219;-67
2023/02/25 10:44:25;;;;;;;23.50;19.00;;;;;;;8.64;100.00;97425.27;110322;1270;22519;-67
2023/02/25 10:47:02;;;;;;;29.20;22.20;;;;;;;8.69;100.00;97426.48;110340;1274;22497;-67
2023/02/25 10:49:36;;;;;;;28.90;20.50;;;;;;;8.65;100.00;97426.63;110339;1269;22372;-68
2023/02/25 10:52:05;;;;;;;30.90;20.70;;;;;;;8.64;100.00;97422.28;110206;1275;22646;-67
2023/02/25 10:54:47;;;;;;;27.30;20.30;;;;;;;8.73;100.00;97413.60;110330;1275;22865;-68
2023/02/25 10:57:26;;;;;;;30.00;22.80;;;;;;;8.80;100.00;97419.32;110327;1275;22303;-67
2023/02/25 10:59:59;;;;;;;29.20;21.30;;;;;;;8.80;100.00;97419.86;110308;1268;22480;-68
2023/02/25 11:02:30;;;;;;;28.90;21.20;;;;;;;8.85;100.00;97413.58;110262;1270;22289;-67
2023/02/25 11:04:58;;;;;;;27.20;19.90;;;;;;;8.94;100.00;97407.06;110228;1270;22528;-67
2023/02/25 11:07:37;;;;;;;24.40;19.60;;;;;;;8.94;100.00;97404.67;110306;1269;22896;-67
2023/02/25 11:10:06;;;;;;;25.60;19.60;;;;;;;8.88;100.00;97399.56;110283;1275;22202;-67
2023/02/25 11:12:42;;;;;;;28.10;20.70;;;;;;;8.88;100.00;97398.72;110338;1276;22386;-68
2023/02/25 11:15:33;;;;;;;24.90;18.50;;;;;;;9.00;100.00;97395.48;110360;1275;22227;-67
2023/02/25 11:18:22;;;;;;;23.90;18.70;;;;;;;9.11;100.00;97391.40;110357;1276;22546;-67
2023/02/25 11:20:51;;;;;;;25.70;19.10;;;;;;;9.11;100.00;97385.74;110313;1270;22286;-67
2023/02/25 11:23:22;;;;;;;25.80;18.90;;;;;;;9.11;100.00;97387.91;110336;1275;22497;-67
2023/02/25 11:25:55;;;;;;;26.50;19.10;;;;;;;9.15;100.00;97379.73;110302;1275;22379;-67
2023/02/25 11:28:40;;;;;;;24.20;18.60;;;;;;;9.14;100.00;97379.14;110370;1275;22291;-67
2023/02/25 11:31:17;;;;;;;23.70;18.50;;;;;;;9.06;100.00;97373.20;110269;1276;22280;-67
2023/02/25 11:33:58;;;;;;;29.50;20.30;;;;;;;9.02;100.00;97376.71;110231;1273;22221;-66
2023/02/25 11:36:32;;;;;;;24.00;18.60;;;;;;;9.04;100.00;97366.11;110348;1275;22360;-67
2023/02/25 11:39:18;;;;;;;24.10;19.20;;;;;;;9.05;100.00;97360.73;110351;1276;22396;-66
2023/02/25 11:41:50;;;;;;;27.10;19.80;;;;;;;9.01;100.00;97362.89;110286;1275;22407;-67
2023/02/25 11:44:43;;;;;;;25.80;18.50;;;;;;;8.98;100.00;97359.50;110372;1275;23543;-67
2023/02/25 11:47:30;;;;;;;25.50;18.50;;;;;;;9.10;100.00;97354.20;110308;1275;22961;-67
2023/02/25 11:50:18;;;;;;;24.70;19.80;;;;;;;9.21;100.00;97344.88;110326;1268;22093;-65
2023/02/25 11:53:07;;;;;;;30.60;19.60;;;;;;;9.16;100.00;97346.02;110061;1272;23033;-67
2023/02/25 11:55:57;;;;;;;31.00;21.10;;;;;;;9.11;100.00;97341.90;107678;1275;26155;-67
2023/02/25 11:58:49;;;;;;;27.90;20.30;;;;;;;9.11;100.00;97343.02;107560;1275;22699;-66
2023/02/25 12:01:46;;;;;;;27.40;22.00;;;;;;;9.07;100.00;97337.38;110313;1268;23160;-67
2023/02/25 12:04:27;;;;;;;29.00;20.50;;;;;;;8.97;100.00;97339.36;107689;1268;26155;-67
2023/02/25 12:06:58;;;;;;;27.70;21.50;;;;;;;8.93;100.00;97335.23;107401;1272;22522;-67
2023/02/25 12:09:53;;;;;;;26.60;20.20;;;;;;;8.94;100.00;97333.14;110189;1267;23263;-67
2023/02/25 12:12:27;;;;;;;30.30;22.60;;;;;;;8.91;100.00;97327.45;110206;1268;22463;-67
2023/02/25 12:14:56;;;;;;;28.40;21.80;;;;;;;8.86;100.00;97326.52;110231;1270;23262;-67
2023/02/25 12:17:37;;;;;;;33.60;22.80;;;;;;;8.88;100.00;97327.64;110231;1272;22337;-67
2023/02/25 12:20:43;;;;;;;29.30;21.80;;;;;;;8.94;100.00;97325.89;110355;1275;22219;-66
2023/02/25 12:23:37;;;;;;;27.90;21.90;;;;;;;8.89;100.00;97322.02;110369;1269;22335;-66
2023/02/25 12:26:33;;;;;;;28.60;21.30;;;;;;;8.81;100.00;97322.77;110320;1274;22479;-68
2023/02/25 12:29:02;;;;;;;25.20;19.40;;;;;;;8.83;100.00;97325.34;110236;1268;22489;-67
2023/02/25 12:32:29;;;;;;;30.20;20.70;;;;;;;8.86;100.00;97322.75;110332;1269;22890;-67
2023/02/25 12:35:24;;;;;;;26.50;20.80;;;;;;;8.83;100.00;97319.75;107113;1280;22633;-66
2023/02/25 12:38:07;;;;;;;26.40;20.10;;;;;;;8.79;100.00;97313.21;106953;1278;22539;-67
2023/02/25 12:41:10;;;;;;;26.50;18.60;;;;;;;8.88;100.00;97313.21;107427;1275;22533;-66
2023/02/25 12:43:54;;;;;;;25.10;19.90;;;;;;;8.95;100.00;97310.66;107501;1268;26383;-66
2023/02/25 12:46:48;;;;;;;26.10;18.20;;;;;;;8.91;100.00;97309.86;107708;1269;22555;-66
2023/02/25 12:49:29;;;;;;;27.70;19.40;;;;;;;8.90;100.00;97306.63;107584;1272;25253;-66
2023/02/25 12:52:19;;;;;;;26.90;20.30;;;;;;;8.92;100.00;97304.08;107488;1272;22539;-66